Accueil
METAR-TAF:

METAR-TAF

Aéroports :

Akıncı, Turquie

latitude: 40-05N, longitude: 032-34E, altitude: 843 m

METAR: absent

Heure: 23:18 (20:18 UTC)

Prévision

Le bulletin a été fait il y a 3 heures et 38 minutes, à 16:40 UTC
Prévision valable du 18 à 18 UTC au 19 à 03 UTC
Vent 2 kt de direction variable
Visibilité 10 km ou plus
Nuages épars à une hauteur de 4000 ft
Nuages fragmentés à une hauteur de 10000 ft
Temporairement
du 18 à 18 UTC au 18 à 20 UTC
Nuages fragmentés à une hauteur de 3500 ft
Nuages fragmentés à une hauteur de 9000 ft
faibles averses de pluie

TAF: LTAE 181640Z 1818/1903 VRB02KT 9999 SCT040 BKN100 TEMPO 1818/1820 -SHRA BKN035 BKN090

Observations et prévisions météorologiques de plus de 4000 aéroports (messages METAR et TAF).

Les stations disponibles sont représentées par des disques jaunes et rouges sur la carte.

Passer la souris dessus pour voir le nom de la station.

Cliquer dessus pour voir les observations et prévisions météorologiques.

Pour changer de carte: cliquez sur les boutons verts avec une croix noire pour zoomer, sur le bouton vert avec un tiret pour effectuer un zoom arrière, ou sur les flèches vertes pour les cartes adjacentes.


METAR-TAF: